sensor_id;sensor_type;location;lat;lon;timestamp;P1;P2;P0
80639;PMS5003;69992;60.170;24.692;2023-08-07T00:00:00;20;20;
80639;PMS5003;69992;60.170;24.692;2023-08-07T00:02:26;22;22;
80639;PMS5003;69992;60.170;24.692;2023-08-07T00:04:51;22;21;
80639;PMS5003;69992;60.170;24.692;2023-08-07T00:07:16;23;23;
80639;PMS5003;69992;60.170;24.692;2023-08-07T00:09:42;22;20;
80639;PMS5003;69992;60.170;24.692;2023-08-07T00:12:07;23;23;
80639;PMS5003;69992;60.170;24.692;2023-08-07T00:14:33;23;23;
80639;PMS5003;69992;60.170;24.692;2023-08-07T00:16:58;25;24;
80639;PMS5003;69992;60.170;24.692;2023-08-07T00:19:24;25;22;
80639;PMS5003;69992;60.170;24.692;2023-08-07T00:21:49;23;23;
80639;PMS5003;69992;60.170;24.692;2023-08-07T00:24:15;25;23;
80639;PMS5003;69992;60.170;24.692;2023-08-07T00:26:40;27;26;
80639;PMS5003;69992;60.170;24.692;2023-08-07T00:29:06;25;24;
80639;PMS5003;69992;60.170;24.692;2023-08-07T00:31:31;23;23;
80639;PMS5003;69992;60.170;24.692;2023-08-07T00:33:56;27;27;
80639;PMS5003;69992;60.170;24.692;2023-08-07T00:36:21;25;25;
80639;PMS5003;69992;60.170;24.692;2023-08-07T00:38:46;24;24;
80639;PMS5003;69992;60.170;24.692;2023-08-07T00:41:12;27;27;
80639;PMS5003;69992;60.170;24.692;2023-08-07T00:43:38;24;24;
80639;PMS5003;69992;60.170;24.692;2023-08-07T00:46:03;27;27;
80639;PMS5003;69992;60.170;24.692;2023-08-07T00:48:28;27;27;
80639;PMS5003;69992;60.170;24.692;2023-08-07T00:50:53;31;29;
80639;PMS5003;69992;60.170;24.692;2023-08-07T00:53:19;25;24;
80639;PMS5003;69992;60.170;24.692;2023-08-07T00:55:45;25;25;
80639;PMS5003;69992;60.170;24.692;2023-08-07T00:58:10;30;29;
80639;PMS5003;69992;60.170;24.692;2023-08-07T01:00:35;27;26;
80639;PMS5003;69992;60.170;24.692;2023-08-07T01:03:01;25;24;
80639;PMS5003;69992;60.170;24.692;2023-08-07T01:05:26;31;26;
80639;PMS5003;69992;60.170;24.692;2023-08-07T01:07:52;28;27;
80639;PMS5003;69992;60.170;24.692;2023-08-07T01:10:17;35;29;
80639;PMS5003;69992;60.170;24.692;2023-08-07T01:12:52;29;29;
80639;PMS5003;69992;60.170;24.692;2023-08-07T01:15:09;28;28;
80639;PMS5003;69992;60.170;24.692;2023-08-07T01:17:33;28;28;
80639;PMS5003;69992;60.170;24.692;2023-08-07T01:19:58;25;25;
80639;PMS5003;69992;60.170;24.692;2023-08-07T01:22:23;34;33;
80639;PMS5003;69992;60.170;24.692;2023-08-07T01:24:49;28;27;
80639;PMS5003;69992;60.170;24.692;2023-08-07T01:27:21;26;26;
80639;PMS5003;69992;60.170;24.692;2023-08-07T01:29:41;30;30;
80639;PMS5003;69992;60.170;24.692;2023-08-07T01:32:05;28;27;
80639;PMS5003;69992;60.170;24.692;2023-08-07T01:34:30;30;29;
80639;PMS5003;69992;60.170;24.692;2023-08-07T01:36:56;35;31;
80639;PMS5003;69992;60.170;24.692;2023-08-07T01:39:21;30;30;
80639;PMS5003;69992;60.170;24.692;2023-08-07T01:41:47;32;29;
80639;PMS5003;69992;60.170;24.692;2023-08-07T01:44:12;30;30;
80639;PMS5003;69992;60.170;24.692;2023-08-07T01:46:38;31;31;
80639;PMS5003;69992;60.170;24.692;2023-08-07T01:49:04;33;30;
80639;PMS5003;69992;60.170;24.692;2023-08-07T01:51:29;29;29;
80639;PMS5003;69992;60.170;24.692;2023-08-07T01:53:54;31;29;
80639;PMS5003;69992;60.170;24.692;2023-08-07T01:56:19;28;28;
80639;PMS5003;69992;60.170;24.692;2023-08-07T01:58:45;27;27;
80639;PMS5003;69992;60.170;24.692;2023-08-07T02:01:11;30;30;
80639;PMS5003;69992;60.170;24.692;2023-08-07T02:03:36;29;29;
80639;PMS5003;69992;60.170;24.692;2023-08-07T02:06:01;34;29;
80639;PMS5003;69992;60.170;24.692;2023-08-07T02:08:27;32;28;
80639;PMS5003;69992;60.170;24.692;2023-08-07T02:10:52;34;33;
80639;PMS5003;69992;60.170;24.692;2023-08-07T02:13:18;30;30;
80639;PMS5003;69992;60.170;24.692;2023-08-07T02:15:43;29;29;
80639;PMS5003;69992;60.170;24.692;2023-08-07T02:18:08;27;27;
80639;PMS5003;69992;60.170;24.692;2023-08-07T02:20:33;29;28;
80639;PMS5003;69992;60.170;24.692;2023-08-07T02:22:59;31;31;
80639;PMS5003;69992;60.170;24.692;2023-08-07T02:25:25;40;34;
80639;PMS5003;69992;60.170;24.692;2023-08-07T02:27:50;31;30;
80639;PMS5003;69992;60.170;24.692;2023-08-07T02:30:15;30;30;
80639;PMS5003;69992;60.170;24.692;2023-08-07T02:32:40;29;29;
80639;PMS5003;69992;60.170;24.692;2023-08-07T02:35:06;32;32;
80639;PMS5003;69992;60.170;24.692;2023-08-07T02:37:31;36;31;
80639;PMS5003;69992;60.170;24.692;2023-08-07T02:39:57;34;34;
80639;PMS5003;69992;60.170;24.692;2023-08-07T02:42:22;36;33;
80639;PMS5003;69992;60.170;24.692;2023-08-07T02:44:47;33;32;
80639;PMS5003;69992;60.170;24.692;2023-08-07T02:47:13;39;32;
80639;PMS5003;69992;60.170;24.692;2023-08-07T02:49:38;33;33;
80639;PMS5003;69992;60.170;24.692;2023-08-07T02:52:04;40;37;
80639;PMS5003;69992;60.170;24.692;2023-08-07T02:54:30;30;30;
80639;PMS5003;69992;60.170;24.692;2023-08-07T02:56:56;37;34;
80639;PMS5003;69992;60.170;24.692;2023-08-07T02:59:21;35;35;
80639;PMS5003;69992;60.170;24.692;2023-08-07T03:01:46;31;31;
80639;PMS5003;69992;60.170;24.692;2023-08-07T03:04:11;31;31;
80639;PMS5003;69992;60.170;24.692;2023-08-07T03:06:37;31;31;
80639;PMS5003;69992;60.170;24.692;2023-08-07T03:09:02;35;33;
80639;PMS5003;69992;60.170;24.692;2023-08-07T03:11:27;37;32;
80639;PMS5003;69992;60.170;24.692;2023-08-07T03:13:52;31;31;
80639;PMS5003;69992;60.170;24.692;2023-08-07T03:16:18;32;32;
80639;PMS5003;69992;60.170;24.692;2023-08-07T03:18:43;35;32;
80639;PMS5003;69992;60.170;24.692;2023-08-07T03:21:09;37;33;
80639;PMS5003;69992;60.170;24.692;2023-08-07T03:23:34;36;34;
80639;PMS5003;69992;60.170;24.692;2023-08-07T03:26:02;28;28;
80639;PMS5003;69992;60.170;24.692;2023-08-07T03:28:26;32;32;
80639;PMS5003;69992;60.170;24.692;2023-08-07T03:30:51;30;30;
80639;PMS5003;69992;60.170;24.692;2023-08-07T03:33:16;38;34;
80639;PMS5003;69992;60.170;24.692;2023-08-07T03:35:41;30;30;
80639;PMS5003;69992;60.170;24.692;2023-08-07T03:38:07;35;34;
80639;PMS5003;69992;60.170;24.692;2023-08-07T03:40:33;28;28;
80639;PMS5003;69992;60.170;24.692;2023-08-07T03:42:58;36;32;
80639;PMS5003;69992;60.170;24.692;2023-08-07T03:45:24;39;37;
80639;PMS5003;69992;60.170;24.692;2023-08-07T03:47:49;32;32;
80639;PMS5003;69992;60.170;24.692;2023-08-07T03:50:15;32;32;
80639;PMS5003;69992;60.170;24.692;2023-08-07T03:52:40;35;35;
80639;PMS5003;69992;60.170;24.692;2023-08-07T03:55:06;33;32;
80639;PMS5003;69992;60.170;24.692;2023-08-07T03:57:31;32;31;
80639;PMS5003;69992;60.170;24.692;2023-08-07T03:59:57;31;31;
80639;PMS5003;69992;60.170;24.692;2023-08-07T04:02:23;29;29;
80639;PMS5003;69992;60.170;24.692;2023-08-07T04:04:48;35;35;
80639;PMS5003;69992;60.170;24.692;2023-08-07T04:07:13;31;29;
80639;PMS5003;69992;60.170;24.692;2023-08-07T04:09:38;33;32;
80639;PMS5003;69992;60.170;24.692;2023-08-07T04:12:04;35;33;
80639;PMS5003;69992;60.170;24.692;2023-08-07T04:14:29;33;33;
80639;PMS5003;69992;60.170;24.692;2023-08-07T04:16:54;32;32;
80639;PMS5003;69992;60.170;24.692;2023-08-07T04:19:20;31;31;
80639;PMS5003;69992;60.170;24.692;2023-08-07T04:21:45;32;32;
80639;PMS5003;69992;60.170;24.692;2023-08-07T04:24:10;33;30;
80639;PMS5003;69992;60.170;24.692;2023-08-07T04:26:36;34;31;
80639;PMS5003;69992;60.170;24.692;2023-08-07T04:29:02;39;35;
80639;PMS5003;69992;60.170;24.692;2023-08-07T04:31:27;33;33;
80639;PMS5003;69992;60.170;24.692;2023-08-07T04:33:53;32;32;
80639;PMS5003;69992;60.170;24.692;2023-08-07T04:36:18;32;32;
80639;PMS5003;69992;60.170;24.692;2023-08-07T04:38:43;34;34;
80639;PMS5003;69992;60.170;24.692;2023-08-07T04:41:09;30;29;
80639;PMS5003;69992;60.170;24.692;2023-08-07T04:43:34;29;28;
80639;PMS5003;69992;60.170;24.692;2023-08-07T04:45:59;36;30;
80639;PMS5003;69992;60.170;24.692;2023-08-07T04:48:25;31;31;
80639;PMS5003;69992;60.170;24.692;2023-08-07T04:50:51;30;30;
80639;PMS5003;69992;60.170;24.692;2023-08-07T04:53:16;29;29;
80639;PMS5003;69992;60.170;24.692;2023-08-07T04:55:42;33;31;
80639;PMS5003;69992;60.170;24.692;2023-08-07T04:58:07;32;32;
80639;PMS5003;69992;60.170;24.692;2023-08-07T05:00:32;34;32;
80639;PMS5003;69992;60.170;24.692;2023-08-07T05:02:58;30;30;
80639;PMS5003;69992;60.170;24.692;2023-08-07T05:05:23;31;31;
80639;PMS5003;69992;60.170;24.692;2023-08-07T05:07:49;29;29;
80639;PMS5003;69992;60.170;24.692;2023-08-07T05:10:14;32;30;
80639;PMS5003;69992;60.170;24.692;2023-08-07T05:12:40;31;30;
80639;PMS5003;69992;60.170;24.692;2023-08-07T05:15:06;36;35;
80639;PMS5003;69992;60.170;24.692;2023-08-07T05:17:31;30;30;
80639;PMS5003;69992;60.170;24.692;2023-08-07T05:19:56;28;28;
80639;PMS5003;69992;60.170;24.692;2023-08-07T05:22:22;33;30;
80639;PMS5003;69992;60.170;24.692;2023-08-07T05:24:47;34;34;
80639;PMS5003;69992;60.170;24.692;2023-08-07T05:27:12;30;30;
80639;PMS5003;69992;60.170;24.692;2023-08-07T05:29:38;32;32;
80639;PMS5003;69992;60.170;24.692;2023-08-07T05:32:04;34;31;
80639;PMS5003;69992;60.170;24.692;2023-08-07T05:34:29;30;29;
80639;PMS5003;69992;60.170;24.692;2023-08-07T05:36:53;32;32;
80639;PMS5003;69992;60.170;24.692;2023-08-07T05:39:19;38;34;
80639;PMS5003;69992;60.170;24.692;2023-08-07T05:41:44;30;28;
80639;PMS5003;69992;60.170;24.692;2023-08-07T05:44:09;31;30;
80639;PMS5003;69992;60.170;24.692;2023-08-07T05:46:35;32;32;
80639;PMS5003;69992;60.170;24.692;2023-08-07T05:49:00;32;30;
80639;PMS5003;69992;60.170;24.692;2023-08-07T05:51:26;35;33;
80639;PMS5003;69992;60.170;24.692;2023-08-07T05:53:51;40;33;
80639;PMS5003;69992;60.170;24.692;2023-08-07T05:56:17;32;32;
80639;PMS5003;69992;60.170;24.692;2023-08-07T05:58:42;29;29;
80639;PMS5003;69992;60.170;24.692;2023-08-07T06:01:08;29;29;
80639;PMS5003;69992;60.170;24.692;2023-08-07T06:03:33;36;35;
80639;PMS5003;69992;60.170;24.692;2023-08-07T06:05:58;31;31;
80639;PMS5003;69992;60.170;24.692;2023-08-07T06:08:24;30;29;
80639;PMS5003;69992;60.170;24.692;2023-08-07T06:10:49;32;32;
80639;PMS5003;69992;60.170;24.692;2023-08-07T06:13:14;34;31;
80639;PMS5003;69992;60.170;24.692;2023-08-07T06:15:40;35;35;
80639;PMS5003;69992;60.170;24.692;2023-08-07T06:18:06;38;35;
80639;PMS5003;69992;60.170;24.692;2023-08-07T06:20:31;33;30;
80639;PMS5003;69992;60.170;24.692;2023-08-07T06:22:57;28;27;
80639;PMS5003;69992;60.170;24.692;2023-08-07T06:25:23;32;31;
80639;PMS5003;69992;60.170;24.692;2023-08-07T06:27:49;31;31;
80639;PMS5003;69992;60.170;24.692;2023-08-07T06:30:13;32;32;
80639;PMS5003;69992;60.170;24.692;2023-08-07T06:32:39;33;30;
80639;PMS5003;69992;60.170;24.692;2023-08-07T06:35:04;37;34;
80639;PMS5003;69992;60.170;24.692;2023-08-07T06:37:29;32;31;
80639;PMS5003;69992;60.170;24.692;2023-08-07T06:39:54;37;34;
80639;PMS5003;69992;60.170;24.692;2023-08-07T06:42:20;32;31;
80639;PMS5003;69992;60.170;24.692;2023-08-07T06:44:46;32;32;
80639;PMS5003;69992;60.170;24.692;2023-08-07T06:47:11;30;29;
80639;PMS5003;69992;60.170;24.692;2023-08-07T06:49:36;28;28;
80639;PMS5003;69992;60.170;24.692;2023-08-07T06:52:02;31;31;
80639;PMS5003;69992;60.170;24.692;2023-08-07T06:54:27;35;31;
80639;PMS5003;69992;60.170;24.692;2023-08-07T06:56:53;32;30;
80639;PMS5003;69992;60.170;24.692;2023-08-07T06:59:18;32;31;
80639;PMS5003;69992;60.170;24.692;2023-08-07T07:01:44;31;31;
80639;PMS5003;69992;60.170;24.692;2023-08-07T07:04:10;32;31;
80639;PMS5003;69992;60.170;24.692;2023-08-07T07:06:36;28;28;
80639;PMS5003;69992;60.170;24.692;2023-08-07T07:09:00;34;30;
80639;PMS5003;69992;60.170;24.692;2023-08-07T07:11:26;28;28;
80639;PMS5003;69992;60.170;24.692;2023-08-07T07:13:52;30;30;
80639;PMS5003;69992;60.170;24.692;2023-08-07T07:16:17;35;32;
80639;PMS5003;69992;60.170;24.692;2023-08-07T07:18:43;33;30;
80639;PMS5003;69992;60.170;24.692;2023-08-07T07:21:08;34;30;
80639;PMS5003;69992;60.170;24.692;2023-08-07T07:23:34;34;31;
80639;PMS5003;69992;60.170;24.692;2023-08-07T07:26:00;30;30;
80639;PMS5003;69992;60.170;24.692;2023-08-07T07:28:25;31;30;
80639;PMS5003;69992;60.170;24.692;2023-08-07T07:30:50;32;32;
80639;PMS5003;69992;60.170;24.692;2023-08-07T07:33:16;33;30;
80639;PMS5003;69992;60.170;24.692;2023-08-07T07:35:41;31;30;
80639;PMS5003;69992;60.170;24.692;2023-08-07T07:38:07;32;31;
80639;PMS5003;69992;60.170;24.692;2023-08-07T07:40:33;29;28;
80639;PMS5003;69992;60.170;24.692;2023-08-07T07:42:58;34;32;
80639;PMS5003;69992;60.170;24.692;2023-08-07T07:45:23;31;30;
80639;PMS5003;69992;60.170;24.692;2023-08-07T07:47:48;27;27;
80639;PMS5003;69992;60.170;24.692;2023-08-07T07:50:14;29;28;
80639;PMS5003;69992;60.170;24.692;2023-08-07T07:52:40;32;31;
80639;PMS5003;69992;60.170;24.692;2023-08-07T07:55:05;32;32;
80639;PMS5003;69992;60.170;24.692;2023-08-07T07:57:30;31;31;
80639;PMS5003;69992;60.170;24.692;2023-08-07T07:59:55;28;26;
80639;PMS5003;69992;60.170;24.692;2023-08-07T08:02:21;28;28;
80639;PMS5003;69992;60.170;24.692;2023-08-07T08:04:46;30;30;
80639;PMS5003;69992;60.170;24.692;2023-08-07T08:07:12;28;28;
80639;PMS5003;69992;60.170;24.692;2023-08-07T08:09:37;30;30;
80639;PMS5003;69992;60.170;24.692;2023-08-07T08:12:02;26;26;
80639;PMS5003;69992;60.170;24.692;2023-08-07T08:14:27;29;29;
80639;PMS5003;69992;60.170;24.692;2023-08-07T08:16:53;29;28;
80639;PMS5003;69992;60.170;24.692;2023-08-07T08:19:18;32;32;
80639;PMS5003;69992;60.170;24.692;2023-08-07T08:21:44;29;29;
80639;PMS5003;69992;60.170;24.692;2023-08-07T08:24:09;28;28;
80639;PMS5003;69992;60.170;24.692;2023-08-07T08:26:34;29;29;
80639;PMS5003;69992;60.170;24.692;2023-08-07T08:28:59;28;28;
80639;PMS5003;69992;60.170;24.692;2023-08-07T08:31:25;36;32;
80639;PMS5003;69992;60.170;24.692;2023-08-07T08:33:50;32;31;
80639;PMS5003;69992;60.170;24.692;2023-08-07T08:36:15;30;30;
80639;PMS5003;69992;60.170;24.692;2023-08-07T08:38:40;29;29;
80639;PMS5003;69992;60.170;24.692;2023-08-07T08:41:06;29;29;
80639;PMS5003;69992;60.170;24.692;2023-08-07T08:43:32;29;29;
80639;PMS5003;69992;60.170;24.692;2023-08-07T08:45:57;32;30;
80639;PMS5003;69992;60.170;24.692;2023-08-07T08:48:22;30;30;
80639;PMS5003;69992;60.170;24.692;2023-08-07T08:50:48;27;27;
80639;PMS5003;69992;60.170;24.692;2023-08-07T08:53:13;28;28;
80639;PMS5003;69992;60.170;24.692;2023-08-07T08:55:38;25;25;
80639;PMS5003;69992;60.170;24.692;2023-08-07T08:58:03;27;27;
80639;PMS5003;69992;60.170;24.692;2023-08-07T09:00:28;35;30;
80639;PMS5003;69992;60.170;24.692;2023-08-07T09:02:54;28;26;
80639;PMS5003;69992;60.170;24.692;2023-08-07T09:05:19;32;31;
80639;PMS5003;69992;60.170;24.692;2023-08-07T09:07:44;28;28;
80639;PMS5003;69992;60.170;24.692;2023-08-07T09:10:09;26;26;
80639;PMS5003;69992;60.170;24.692;2023-08-07T09:12:35;30;28;
80639;PMS5003;69992;60.170;24.692;2023-08-07T09:15:01;30;30;
80639;PMS5003;69992;60.170;24.692;2023-08-07T09:17:26;36;32;
80639;PMS5003;69992;60.170;24.692;2023-08-07T09:19:51;27;27;
80639;PMS5003;69992;60.170;24.692;2023-08-07T09:22:16;25;25;
80639;PMS5003;69992;60.170;24.692;2023-08-07T09:24:41;30;29;
80639;PMS5003;69992;60.170;24.692;2023-08-07T09:27:07;28;28;
80639;PMS5003;69992;60.170;24.692;2023-08-07T09:29:32;29;28;
80639;PMS5003;69992;60.170;24.692;2023-08-07T09:32:00;31;28;
80639;PMS5003;69992;60.170;24.692;2023-08-07T09:34:23;29;29;
80639;PMS5003;69992;60.170;24.692;2023-08-07T09:36:48;28;27;
80639;PMS5003;69992;60.170;24.692;2023-08-07T09:39:13;27;26;
80639;PMS5003;69992;60.170;24.692;2023-08-07T09:41:38;29;27;
80639;PMS5003;69992;60.170;24.692;2023-08-07T09:44:05;28;27;
80639;PMS5003;69992;60.170;24.692;2023-08-07T09:46:29;27;27;
80639;PMS5003;69992;60.170;24.692;2023-08-07T09:48:57;26;26;
80639;PMS5003;69992;60.170;24.692;2023-08-07T09:51:19;26;26;
80639;PMS5003;69992;60.170;24.692;2023-08-07T09:53:46;31;28;
80639;PMS5003;69992;60.170;24.692;2023-08-07T09:56:10;29;29;
80639;PMS5003;69992;60.170;24.692;2023-08-07T09:58:35;28;28;
80639;PMS5003;69992;60.170;24.692;2023-08-07T10:01:02;28;27;
80639;PMS5003;69992;60.170;24.692;2023-08-07T10:03:26;25;25;
80639;PMS5003;69992;60.170;24.692;2023-08-07T10:05:52;28;26;
80639;PMS5003;69992;60.170;24.692;2023-08-07T10:08:17;26;26;
80639;PMS5003;69992;60.170;24.692;2023-08-07T10:10:42;26;25;
80639;PMS5003;69992;60.170;24.692;2023-08-07T10:13:07;27;27;
80639;PMS5003;69992;60.170;24.692;2023-08-07T10:15:33;27;27;
80639;PMS5003;69992;60.170;24.692;2023-08-07T10:17:58;28;27;
80639;PMS5003;69992;60.170;24.692;2023-08-07T10:20:24;25;25;
80639;PMS5003;69992;60.170;24.692;2023-08-07T10:22:50;34;30;
80639;PMS5003;69992;60.170;24.692;2023-08-07T10:25:15;31;28;
80639;PMS5003;69992;60.170;24.692;2023-08-07T10:27:41;29;29;
80639;PMS5003;69992;60.170;24.692;2023-08-07T10:30:06;25;25;
80639;PMS5003;69992;60.170;24.692;2023-08-07T10:32:31;29;27;
80639;PMS5003;69992;60.170;24.692;2023-08-07T10:34:56;27;26;
80639;PMS5003;69992;60.170;24.692;2023-08-07T10:42:12;25;25;
80639;PMS5003;69992;60.170;24.692;2023-08-07T10:44:44;33;29;
80639;PMS5003;69992;60.170;24.692;2023-08-07T10:47:03;27;27;
80639;PMS5003;69992;60.170;24.692;2023-08-07T10:49:30;29;26;
80639;PMS5003;69992;60.170;24.692;2023-08-07T10:51:54;27;25;
80639;PMS5003;69992;60.170;24.692;2023-08-07T10:54:20;24;24;
80639;PMS5003;69992;60.170;24.692;2023-08-07T10:56:45;30;29;
80639;PMS5003;69992;60.170;24.692;2023-08-07T10:59:11;26;26;
80639;PMS5003;69992;60.170;24.692;2023-08-07T11:01:40;31;28;
80639;PMS5003;69992;60.170;24.692;2023-08-07T11:04:05;30;30;
80639;PMS5003;69992;60.170;24.692;2023-08-07T11:06:26;26;26;
80639;PMS5003;69992;60.170;24.692;2023-08-07T11:08:51;28;27;
80639;PMS5003;69992;60.170;24.692;2023-08-07T11:11:16;29;29;
80639;PMS5003;69992;60.170;24.692;2023-08-07T11:13:42;29;28;
80639;PMS5003;69992;60.170;24.692;2023-08-07T11:16:07;30;29;
80639;PMS5003;69992;60.170;24.692;2023-08-07T11:18:33;30;29;
80639;PMS5003;69992;60.170;24.692;2023-08-07T11:20:59;26;26;
80639;PMS5003;69992;60.170;24.692;2023-08-07T11:23:25;30;28;
80639;PMS5003;69992;60.170;24.692;2023-08-07T11:25:49;27;27;
80639;PMS5003;69992;60.170;24.692;2023-08-07T11:28:17;32;29;
80639;PMS5003;69992;60.170;24.692;2023-08-07T11:30:40;28;28;
80639;PMS5003;69992;60.170;24.692;2023-08-07T11:33:06;32;32;
80639;PMS5003;69992;60.170;24.692;2023-08-07T11:35:31;31;28;
80639;PMS5003;69992;60.170;24.692;2023-08-07T11:37:56;27;26;
80639;PMS5003;69992;60.170;24.692;2023-08-07T11:40:23;27;26;
80639;PMS5003;69992;60.170;24.692;2023-08-07T11:42:47;29;28;
80639;PMS5003;69992;60.170;24.692;2023-08-07T11:45:13;32;32;
80639;PMS5003;69992;60.170;24.692;2023-08-07T11:47:38;25;25;
80639;PMS5003;69992;60.170;24.692;2023-08-07T11:50:04;34;31;
80639;PMS5003;69992;60.170;24.692;2023-08-07T11:52:28;25;25;
80639;PMS5003;69992;60.170;24.692;2023-08-07T11:54:54;28;27;
80639;PMS5003;69992;60.170;24.692;2023-08-07T11:57:19;34;30;
80639;PMS5003;69992;60.170;24.692;2023-08-07T11:59:49;36;32;
80639;PMS5003;69992;60.170;24.692;2023-08-07T12:02:10;27;27;
80639;PMS5003;69992;60.170;24.692;2023-08-07T12:04:35;26;26;
80639;PMS5003;69992;60.170;24.692;2023-08-07T12:07:01;28;27;
80639;PMS5003;69992;60.170;24.692;2023-08-07T12:09:27;28;28;
80639;PMS5003;69992;60.170;24.692;2023-08-07T12:11:55;28;25;
80639;PMS5003;69992;60.170;24.692;2023-08-07T12:14:17;25;24;
80639;PMS5003;69992;60.170;24.692;2023-08-07T12:16:43;25;23;
80639;PMS5003;69992;60.170;24.692;2023-08-07T12:19:07;30;25;
80639;PMS5003;69992;60.170;24.692;2023-08-07T12:21:33;25;24;
80639;PMS5003;69992;60.170;24.692;2023-08-07T12:23:58;27;27;
80639;PMS5003;69992;60.170;24.692;2023-08-07T12:26:23;26;26;
80639;PMS5003;69992;60.170;24.692;2023-08-07T12:28:48;31;28;
80639;PMS5003;69992;60.170;24.692;2023-08-07T12:31:14;24;24;
80639;PMS5003;69992;60.170;24.692;2023-08-07T12:33:40;22;22;
80639;PMS5003;69992;60.170;24.692;2023-08-07T12:36:05;24;24;
80639;PMS5003;69992;60.170;24.692;2023-08-07T12:38:30;29;28;
80639;PMS5003;69992;60.170;24.692;2023-08-07T12:40:55;26;26;
80639;PMS5003;69992;60.170;24.692;2023-08-07T12:43:21;28;28;
80639;PMS5003;69992;60.170;24.692;2023-08-07T12:45:46;23;23;
80639;PMS5003;69992;60.170;24.692;2023-08-07T12:48:11;24;24;
80639;PMS5003;69992;60.170;24.692;2023-08-07T12:50:37;27;25;
80639;PMS5003;69992;60.170;24.692;2023-08-07T12:53:02;21;21;
80639;PMS5003;69992;60.170;24.692;2023-08-07T12:55:27;23;23;
80639;PMS5003;69992;60.170;24.692;2023-08-07T12:57:53;24;22;
80639;PMS5003;69992;60.170;24.692;2023-08-07T13:00:18;20;20;
80639;PMS5003;69992;60.170;24.692;2023-08-07T13:02:44;24;23;
80639;PMS5003;69992;60.170;24.692;2023-08-07T13:05:08;19;19;
80639;PMS5003;69992;60.170;24.692;2023-08-07T13:07:33;20;20;
80639;PMS5003;69992;60.170;24.692;2023-08-07T13:09:59;21;20;
80639;PMS5003;69992;60.170;24.692;2023-08-07T13:12:24;19;19;
80639;PMS5003;69992;60.170;24.692;2023-08-07T13:14:49;19;19;
80639;PMS5003;69992;60.170;24.692;2023-08-07T13:17:15;18;18;
80639;PMS5003;69992;60.170;24.692;2023-08-07T13:19:40;19;19;
80639;PMS5003;69992;60.170;24.692;2023-08-07T13:22:06;22;21;
80639;PMS5003;69992;60.170;24.692;2023-08-07T13:24:31;23;22;
80639;PMS5003;69992;60.170;24.692;2023-08-07T13:26:57;20;19;
80639;PMS5003;69992;60.170;24.692;2023-08-07T13:29:22;18;18;
80639;PMS5003;69992;60.170;24.692;2023-08-07T13:31:48;15;15;
80639;PMS5003;69992;60.170;24.692;2023-08-07T13:34:13;19;19;
80639;PMS5003;69992;60.170;24.692;2023-08-07T13:36:39;17;16;
80639;PMS5003;69992;60.170;24.692;2023-08-07T13:39:04;17;17;
80639;PMS5003;69992;60.170;24.692;2023-08-07T13:41:29;16;16;
80639;PMS5003;69992;60.170;24.692;2023-08-07T13:43:55;20;20;
80639;PMS5003;69992;60.170;24.692;2023-08-07T13:46:20;17;17;
80639;PMS5003;69992;60.170;24.692;2023-08-07T13:48:46;17;17;
80639;PMS5003;69992;60.170;24.692;2023-08-07T13:51:11;18;17;
80639;PMS5003;69992;60.170;24.692;2023-08-07T13:53:36;19;18;
80639;PMS5003;69992;60.170;24.692;2023-08-07T13:56:02;24;20;
80639;PMS5003;69992;60.170;24.692;2023-08-07T13:58:27;17;17;
80639;PMS5003;69992;60.170;24.692;2023-08-07T14:00:52;14;14;
80639;PMS5003;69992;60.170;24.692;2023-08-07T14:03:18;17;17;
80639;PMS5003;69992;60.170;24.692;2023-08-07T14:05:43;16;16;
80639;PMS5003;69992;60.170;24.692;2023-08-07T14:08:08;15;15;
80639;PMS5003;69992;60.170;24.692;2023-08-07T14:10:34;16;16;
80639;PMS5003;69992;60.170;24.692;2023-08-07T14:12:59;19;19;
80639;PMS5003;69992;60.170;24.692;2023-08-07T14:15:24;16;16;
80639;PMS5003;69992;60.170;24.692;2023-08-07T14:17:49;17;16;
80639;PMS5003;69992;60.170;24.692;2023-08-07T14:20:15;18;16;
80639;PMS5003;69992;60.170;24.692;2023-08-07T14:22:41;22;19;
80639;PMS5003;69992;60.170;24.692;2023-08-07T14:25:07;18;18;
80639;PMS5003;69992;60.170;24.692;2023-08-07T14:27:32;18;18;
80639;PMS5003;69992;60.170;24.692;2023-08-07T14:29:57;19;18;
80639;PMS5003;69992;60.170;24.692;2023-08-07T14:32:22;19;19;
80639;PMS5003;69992;60.170;24.692;2023-08-07T14:34:47;17;17;
80639;PMS5003;69992;60.170;24.692;2023-08-07T14:37:13;17;17;
80639;PMS5003;69992;60.170;24.692;2023-08-07T14:39:38;19;19;
80639;PMS5003;69992;60.170;24.692;2023-08-07T14:42:03;18;18;
80639;PMS5003;69992;60.170;24.692;2023-08-07T14:44:29;18;18;
80639;PMS5003;69992;60.170;24.692;2023-08-07T14:46:54;14;14;
80639;PMS5003;69992;60.170;24.692;2023-08-07T14:49:20;17;16;
80639;PMS5003;69992;60.170;24.692;2023-08-07T14:51:45;17;17;
80639;PMS5003;69992;60.170;24.692;2023-08-07T14:54:11;20;19;
80639;PMS5003;69992;60.170;24.692;2023-08-07T14:56:37;22;21;
80639;PMS5003;69992;60.170;24.692;2023-08-07T14:59:03;20;19;
80639;PMS5003;69992;60.170;24.692;2023-08-07T15:01:28;18;18;
80639;PMS5003;69992;60.170;24.692;2023-08-07T15:03:54;20;19;
80639;PMS5003;69992;60.170;24.692;2023-08-07T15:06:19;18;18;
80639;PMS5003;69992;60.170;24.692;2023-08-07T15:08:45;18;18;
80639;PMS5003;69992;60.170;24.692;2023-08-07T15:11:10;18;18;
80639;PMS5003;69992;60.170;24.692;2023-08-07T15:13:35;19;19;
80639;PMS5003;69992;60.170;24.692;2023-08-07T15:16:01;18;17;
80639;PMS5003;69992;60.170;24.692;2023-08-07T15:18:26;19;18;
80639;PMS5003;69992;60.170;24.692;2023-08-07T15:20:51;21;21;
80639;PMS5003;69992;60.170;24.692;2023-08-07T15:23:16;21;21;
80639;PMS5003;69992;60.170;24.692;2023-08-07T15:25:41;20;18;
80639;PMS5003;69992;60.170;24.692;2023-08-07T15:28:06;20;20;
80639;PMS5003;69992;60.170;24.692;2023-08-07T15:30:32;19;19;
80639;PMS5003;69992;60.170;24.692;2023-08-07T15:32:57;18;17;
80639;PMS5003;69992;60.170;24.692;2023-08-07T15:35:22;21;21;
80639;PMS5003;69992;60.170;24.692;2023-08-07T15:37:47;19;19;
80639;PMS5003;69992;60.170;24.692;2023-08-07T15:40:12;17;16;
80639;PMS5003;69992;60.170;24.692;2023-08-07T15:42:38;20;20;
80639;PMS5003;69992;60.170;24.692;2023-08-07T15:45:03;25;21;
80639;PMS5003;69992;60.170;24.692;2023-08-07T15:47:28;20;20;
80639;PMS5003;69992;60.170;24.692;2023-08-07T15:49:53;19;19;
80639;PMS5003;69992;60.170;24.692;2023-08-07T15:52:18;21;20;